createdAt,value
2018-05-09T00:01:30.672Z,65.90
2018-05-09T00:03:59.437Z,65.00
2018-05-09T00:06:27.325Z,65.00
2018-05-09T00:08:55.292Z,65.20
2018-05-09T00:11:23.158Z,65.00
2018-05-09T00:13:51.026Z,65.20
2018-05-09T00:16:18.892Z,65.40
2018-05-09T00:18:46.759Z,65.50
2018-05-09T00:21:14.625Z,65.50
2018-05-09T00:23:42.491Z,64.90
2018-05-09T00:26:10.359Z,64.30
2018-05-09T00:28:38.225Z,64.40
2018-05-09T00:31:06.091Z,64.70
2018-05-09T00:33:33.958Z,64.50
2018-05-09T00:36:01.825Z,64.40
2018-05-09T00:38:29.690Z,64.10
2018-05-09T00:40:57.556Z,64.70
2018-05-09T00:43:25.424Z,64.50
2018-05-09T00:45:53.290Z,64.60
2018-05-09T00:48:21.156Z,65.80
2018-05-09T00:50:49.023Z,66.40
2018-05-09T00:53:16.894Z,65.20
2018-05-09T00:55:44.756Z,64.40
2018-05-09T00:58:12.624Z,64.90
2018-05-09T01:00:40.417Z,64.20
2018-05-09T01:03:08.356Z,64.50
2018-05-09T01:05:36.224Z,65.30
2018-05-09T01:08:04.195Z,66.30
2018-05-09T01:10:32.059Z,65.60
2018-05-09T01:13:00.029Z,64.90
2018-05-09T01:15:27.895Z,64.90
2018-05-09T01:17:55.762Z,65.50
2018-05-09T01:20:23.735Z,65.00
2018-05-09T01:22:51.599Z,64.90
2018-05-09T01:25:19.566Z,64.70
2018-05-09T01:27:47.434Z,64.90
2018-05-09T01:30:15.298Z,65.00
2018-05-09T01:32:43.164Z,65.40
2018-05-09T01:35:11.032Z,65.00
2018-05-09T01:37:38.898Z,65.80
2018-05-09T01:40:06.764Z,65.90
2018-05-09T01:42:34.631Z,66.00
2018-05-09T01:45:02.498Z,65.60
2018-05-09T01:47:30.364Z,66.80
2018-05-09T01:49:58.233Z,65.80
2018-05-09T01:52:26.098Z,65.50
2018-05-09T01:54:54.043Z,66.00
2018-05-09T01:57:22.655Z,66.00
2018-05-09T01:59:53.129Z,66.00
2018-05-09T02:02:23.318Z,66.90
2018-05-09T02:04:52.533Z,66.70
2018-05-09T02:07:21.182Z,66.70
2018-05-09T02:09:49.055Z,66.60
2018-05-09T02:12:16.915Z,66.00
2018-05-09T02:14:44.884Z,66.00
2018-05-09T02:17:12.750Z,65.60
2018-05-09T02:19:40.617Z,66.30
2018-05-09T02:22:08.486Z,66.00
2018-05-09T02:24:36.248Z,65.60
2018-05-09T02:27:04.115Z,65.40
2018-05-09T02:29:31.981Z,65.60
2018-05-09T02:31:59.849Z,65.60
2018-05-09T02:34:27.723Z,66.00
2018-05-09T02:36:55.581Z,65.60
2018-05-09T02:39:23.449Z,65.40
2018-05-09T02:41:51.315Z,65.90
2018-05-09T02:44:19.182Z,66.20
2018-05-09T02:46:46.984Z,66.00
2018-05-09T02:49:15.642Z,66.70
2018-05-09T02:51:43.499Z,66.70
2018-05-09T02:54:11.368Z,66.70
2018-05-09T02:56:39.162Z,67.80
2018-05-09T02:59:07.741Z,67.20
2018-05-09T03:01:35.682Z,67.20
2018-05-09T03:04:03.474Z,67.40
2018-05-09T03:06:31.415Z,67.70
2018-05-09T03:08:59.286Z,67.70
2018-05-09T03:11:27.146Z,67.10
2018-05-09T03:13:55.013Z,67.20
2018-05-09T03:16:22.879Z,67.00
2018-05-09T03:18:50.745Z,66.90
2018-05-09T03:21:18.611Z,67.00
2018-05-09T03:23:46.580Z,66.90
2018-05-09T03:26:14.372Z,67.30
2018-05-09T03:28:42.313Z,68.10
2018-05-09T03:31:10.182Z,67.80
2018-05-09T03:33:38.047Z,68.20
2018-05-09T03:36:05.915Z,67.00
2018-05-09T03:38:33.780Z,67.50
2018-05-09T03:41:01.648Z,67.10
2018-05-09T03:43:29.514Z,67.30
2018-05-09T03:45:57.476Z,67.30
2018-05-09T03:48:25.349Z,68.20
2018-05-09T03:50:53.318Z,68.70
2018-05-09T03:53:21.123Z,68.40
2018-05-09T03:55:49.768Z,67.90
2018-05-09T03:58:17.634Z,67.50
2018-05-09T04:00:45.502Z,68.70
2018-05-09T04:03:25.144Z,68.50
2018-05-09T04:06:04.889Z,69.40
2018-05-09T04:08:44.637Z,68.70
2018-05-09T04:11:13.423Z,68.00
2018-05-09T04:13:41.289Z,67.70
2018-05-09T04:16:09.156Z,68.40
2018-05-09T04:18:37.022Z,68.10
2018-05-09T04:21:04.993Z,68.50
2018-05-09T04:23:32.857Z,68.00
2018-05-09T04:26:00.724Z,67.70
2018-05-09T04:28:28.593Z,68.30
2018-05-09T04:30:56.459Z,68.40
2018-05-09T04:33:24.326Z,68.90
2018-05-09T04:35:52.190Z,68.20
2018-05-09T04:38:20.160Z,68.90
2018-05-09T04:40:48.128Z,69.00
2018-05-09T04:43:16.000Z,68.60
2018-05-09T04:45:43.862Z,68.60
2018-05-09T04:48:11.727Z,67.80
2018-05-09T04:50:39.593Z,67.30
2018-05-09T04:53:07.460Z,66.60
2018-05-09T04:55:35.364Z,67.40
2018-05-09T04:58:04.012Z,67.00
2018-05-09T05:00:31.878Z,67.00
2018-05-09T05:02:59.848Z,67.10
2018-05-09T05:05:27.819Z,67.60
2018-05-09T05:07:55.683Z,68.20
2018-05-09T05:10:23.554Z,68.60
2018-05-09T05:12:51.416Z,68.10
2018-05-09T05:15:19.284Z,68.60
2018-05-09T05:17:47.149Z,67.50
2018-05-09T05:20:15.018Z,67.00
2018-05-09T05:22:42.883Z,66.60
2018-05-09T05:25:10.852Z,67.30
2018-05-09T05:27:38.720Z,66.60
2018-05-09T05:30:06.584Z,67.90
2018-05-09T05:32:34.452Z,67.50
2018-05-09T05:35:02.319Z,66.90
2018-05-09T05:37:30.185Z,67.00
2018-05-09T05:39:58.052Z,67.20
2018-05-09T05:42:26.020Z,68.30
2018-05-09T05:44:54.806Z,66.90
2018-05-09T05:47:23.392Z,69.00
2018-05-09T05:49:51.261Z,68.90
2018-05-09T05:52:19.948Z,66.20
2018-05-09T05:54:47.812Z,66.10
2018-05-09T05:57:15.780Z,65.20
2018-05-09T05:59:43.650Z,65.30
2018-05-09T06:02:11.515Z,65.70
2018-05-09T06:04:39.383Z,66.00
2018-05-09T06:07:07.247Z,66.80
2018-05-09T06:09:35.117Z,66.80
2018-05-09T06:12:02.980Z,66.60
2018-05-09T06:14:30.847Z,66.30
2018-05-09T06:16:58.713Z,66.00
2018-05-09T06:19:26.582Z,66.70
2018-05-09T06:21:54.448Z,66.40
2018-05-09T06:24:22.312Z,66.90
2018-05-09T06:26:50.285Z,66.60
2018-05-09T06:29:18.147Z,67.70
2018-05-09T06:31:46.014Z,65.90
2018-05-09T06:34:13.880Z,65.80
2018-05-09T06:36:41.848Z,65.20
2018-05-09T06:39:09.819Z,66.60
2018-05-09T06:41:37.705Z,65.80
2018-05-09T06:44:05.654Z,67.10
2018-05-09T06:46:33.524Z,64.20
2018-05-09T06:49:01.393Z,63.80
2018-05-09T06:51:29.254Z,64.20
2018-05-09T06:53:57.120Z,65.40
2018-05-09T06:56:24.987Z,63.40
2018-05-09T06:58:52.855Z,63.00
2018-05-09T07:01:20.722Z,59.80
2018-05-09T07:03:48.587Z,54.40
2018-05-09T07:06:16.534Z,51.00
2018-05-09T07:08:45.139Z,44.40
2018-05-09T07:11:14.541Z,42.60
2018-05-09T07:13:42.408Z,42.60
2018-05-09T07:16:10.275Z,39.80
2018-05-09T07:18:38.140Z,37.20
2018-05-09T07:21:06.008Z,36.50
2018-05-09T07:23:34.796Z,36.10
2018-05-09T07:26:03.277Z,36.40
2018-05-09T07:28:31.248Z,35.70
2018-05-09T07:30:59.112Z,35.00
2018-05-09T07:33:26.903Z,33.80
2018-05-09T07:35:54.845Z,32.30
2018-05-09T07:38:22.712Z,31.00
2018-05-09T07:40:50.579Z,30.60
2018-05-09T07:43:18.445Z,29.50
2018-05-09T07:45:46.312Z,27.90
2018-05-09T07:48:14.177Z,27.50
2018-05-09T07:50:42.046Z,27.40
2018-05-09T07:53:10.731Z,26.90
2018-05-09T07:55:38.706Z,26.80
2018-05-09T07:58:07.283Z,25.90
2018-05-09T08:00:35.149Z,25.90
2018-05-09T08:03:03.017Z,26.10
2018-05-09T08:05:31.727Z,26.80
2018-05-09T08:07:59.671Z,26.30
2018-05-09T08:10:27.477Z,24.70
2018-05-09T08:12:56.200Z,26.90
2018-05-09T08:15:24.806Z,27.80
2018-05-09T08:17:52.673Z,27.80
2018-05-09T08:20:20.553Z,28.50
2018-05-09T08:22:49.943Z,28.10
2018-05-09T08:25:17.741Z,28.10
2018-05-09T08:27:46.421Z,27.10
2018-05-09T08:30:14.388Z,27.10
2018-05-09T08:32:43.048Z,26.80
2018-05-09T08:35:11.017Z,26.80
2018-05-09T08:37:38.883Z,26.20
2018-05-09T08:40:06.753Z,26.20
2018-05-09T08:42:34.616Z,25.10
2018-05-09T08:45:02.409Z,24.70
2018-05-09T08:47:31.066Z,25.90
2018-05-09T08:49:58.932Z,25.40
2018-05-09T08:52:26.800Z,25.90
2018-05-09T08:54:54.665Z,25.00
2018-05-09T08:57:22.533Z,25.00
2018-05-09T08:59:50.367Z,26.10
2018-05-09T09:02:18.266Z,26.10
2018-05-09T09:04:46.134Z,25.60
2018-05-09T09:07:13.999Z,25.90
2018-05-09T09:09:41.865Z,25.40
2018-05-09T09:12:09.732Z,25.20
2018-05-09T09:14:37.598Z,24.90
2018-05-09T09:17:05.570Z,25.60
2018-05-09T09:19:33.436Z,26.70
2018-05-09T09:22:01.300Z,26.90
2018-05-09T09:24:29.166Z,25.60
2018-05-09T09:26:56.985Z,25.70
2018-05-09T09:29:25.619Z,25.40
2018-05-09T09:31:53.483Z,25.30
2018-05-09T09:34:21.353Z,24.70
2018-05-09T09:36:49.216Z,24.20
2018-05-09T09:39:17.083Z,26.30
2018-05-09T09:41:45.053Z,25.20
2018-05-09T09:44:12.850Z,25.60
2018-05-09T09:46:41.501Z,26.50
2018-05-09T09:49:09.368Z,26.50
2018-05-09T09:51:37.234Z,25.80
2018-05-09T09:54:05.101Z,25.90
2018-05-09T09:56:32.968Z,25.00
2018-05-09T09:59:00.835Z,24.80
2018-05-09T10:01:28.619Z,25.10
2018-05-09T10:03:57.388Z,25.80
2018-05-09T10:06:28.668Z,25.70
2018-05-09T10:08:56.662Z,25.90
2018-05-09T10:11:24.758Z,27.20
2018-05-09T10:13:52.529Z,27.00
2018-05-09T10:16:20.346Z,27.10
2018-05-09T10:18:48.873Z,27.30
2018-05-09T10:21:16.629Z,27.30
2018-05-09T10:23:44.395Z,27.60
2018-05-09T10:26:12.173Z,28.70
2018-05-09T10:28:39.959Z,29.70
2018-05-09T10:31:07.815Z,30.80
2018-05-09T10:33:35.604Z,31.10
2018-05-09T10:36:03.378Z,33.10
2018-05-09T10:38:31.951Z,35.20
2018-05-09T10:41:00.489Z,35.60
2018-05-09T10:43:28.244Z,35.50
2018-05-09T10:45:56.021Z,36.00
2018-05-09T10:48:23.838Z,36.60
2018-05-09T10:50:52.523Z,37.20
2018-05-09T10:53:20.293Z,37.20
2018-05-09T10:55:48.819Z,38.00
2018-05-09T10:58:16.599Z,38.00
2018-05-09T11:00:44.609Z,39.00
2018-05-09T11:03:12.959Z,39.10
2018-05-09T11:05:40.788Z,39.40
2018-05-09T11:08:09.309Z,40.20
2018-05-09T11:10:38.117Z,40.10
2018-05-09T11:13:06.541Z,40.30
2018-05-09T11:15:34.812Z,40.20
2018-05-09T11:18:03.305Z,40.70
2018-05-09T11:20:31.066Z,39.20
2018-05-09T11:22:58.829Z,39.10
2018-05-09T11:25:26.741Z,40.00
2018-05-09T11:27:54.509Z,39.50
2018-05-09T11:30:23.545Z,40.00
2018-05-09T11:32:51.335Z,39.30
2018-05-09T11:35:19.304Z,39.10
2018-05-09T11:37:47.087Z,39.60
2018-05-09T11:40:14.842Z,39.10
2018-05-09T11:42:42.804Z,40.20
2018-05-09T11:45:10.771Z,38.70
2018-05-09T11:47:38.639Z,39.20
2018-05-09T11:50:06.504Z,40.20
2018-05-09T11:52:34.371Z,39.80
2018-05-09T11:55:02.236Z,37.90
2018-05-09T11:57:30.107Z,39.20
2018-05-09T11:59:57.969Z,39.70
2018-05-09T12:02:25.940Z,39.50
2018-05-09T12:04:54.624Z,39.40
2018-05-09T12:07:22.491Z,39.40
2018-05-09T12:09:50.358Z,40.30
2018-05-09T12:12:18.227Z,40.80
2018-05-09T12:14:46.193Z,41.10
2018-05-09T12:17:14.059Z,40.00
2018-05-09T12:19:42.030Z,40.30
2018-05-09T12:22:09.895Z,41.20
2018-05-09T12:24:37.808Z,40.80
2018-05-09T12:27:06.447Z,40.50
2018-05-09T12:29:34.314Z,40.40
2018-05-09T12:32:02.180Z,40.90
2018-05-09T12:34:30.049Z,41.10
2018-05-09T12:36:57.913Z,40.30
2018-05-09T12:39:25.780Z,38.60
2018-05-09T12:41:53.646Z,39.20
2018-05-09T12:44:21.513Z,38.30
2018-05-09T12:46:49.329Z,37.30
2018-05-09T12:49:17.966Z,38.00
2018-05-09T12:51:45.830Z,38.00
2018-05-09T12:54:13.696Z,38.30
2018-05-09T12:56:41.563Z,39.00
2018-05-09T12:59:09.531Z,39.60
2018-05-09T13:01:37.398Z,40.60
2018-05-09T13:04:05.196Z,39.60
2018-05-09T13:06:33.131Z,39.60
2018-05-09T13:09:00.998Z,40.00
2018-05-09T13:11:28.865Z,39.10
2018-05-09T13:13:56.657Z,39.80
2018-05-09T13:16:24.597Z,39.50
2018-05-09T13:18:52.463Z,39.10
2018-05-09T13:21:20.330Z,38.80
2018-05-09T13:23:49.016Z,39.20
2018-05-09T13:26:16.832Z,39.10
2018-05-09T13:28:45.568Z,39.40
2018-05-09T13:31:13.569Z,39.50
2018-05-09T13:33:41.508Z,39.60
2018-05-09T13:36:09.372Z,39.40
2018-05-09T13:38:37.240Z,38.60
2018-05-09T13:41:05.107Z,39.00
2018-05-09T13:43:32.972Z,38.50
2018-05-09T13:46:00.887Z,38.90
2018-05-09T13:48:29.525Z,40.00
2018-05-09T13:50:57.395Z,40.00
2018-05-09T13:53:25.258Z,40.30
2018-05-09T13:55:53.125Z,40.50
2018-05-09T13:58:20.992Z,41.10
2018-05-09T14:00:48.857Z,41.80
2018-05-09T14:03:16.724Z,42.00
2018-05-09T14:05:44.591Z,43.00
2018-05-09T14:08:12.462Z,42.30
2018-05-09T14:10:40.325Z,42.80
2018-05-09T14:13:08.198Z,42.80
2018-05-09T14:15:36.188Z,42.00
2018-05-09T14:18:04.781Z,43.10
2018-05-09T14:20:33.429Z,44.00
2018-05-09T14:23:01.295Z,44.00
2018-05-09T14:25:29.091Z,44.00
2018-05-09T14:27:57.031Z,44.70
2018-05-09T14:30:24.895Z,41.00
2018-05-09T14:32:52.762Z,39.30
2018-05-09T14:35:20.730Z,39.40
2018-05-09T14:37:48.597Z,38.40
2018-05-09T14:40:16.463Z,40.00
2018-05-09T14:42:44.330Z,40.60
2018-05-09T14:45:12.095Z,39.70
2018-05-09T14:47:39.962Z,39.70
2018-05-09T14:50:07.831Z,39.90
2018-05-09T14:52:35.695Z,40.20
2018-05-09T14:55:03.533Z,40.50
2018-05-09T14:57:31.427Z,41.60
2018-05-09T14:59:59.296Z,45.90
2018-05-09T15:02:27.160Z,46.60
2018-05-09T15:04:55.028Z,47.40
2018-05-09T15:07:22.820Z,48.00
2018-05-09T15:09:50.760Z,50.00
2018-05-09T15:12:18.628Z,50.50
2018-05-09T15:14:46.498Z,51.20
2018-05-09T15:17:14.363Z,52.20
2018-05-09T15:19:42.370Z,52.40
2018-05-09T15:22:11.015Z,53.60
2018-05-09T15:24:38.884Z,53.50
2018-05-09T15:27:06.851Z,53.90
2018-05-09T15:29:34.716Z,54.00
2018-05-09T15:32:02.613Z,54.60
2018-05-09T15:34:31.268Z,55.30
2018-05-09T15:36:59.237Z,54.60
2018-05-09T15:39:27.104Z,54.10
2018-05-09T15:41:54.970Z,54.00
2018-05-09T15:44:22.837Z,54.40
2018-05-09T15:46:50.705Z,53.80
2018-05-09T15:49:18.570Z,54.10
2018-05-09T15:51:46.365Z,54.00
2018-05-09T15:54:14.302Z,53.60
2018-05-09T15:56:42.271Z,53.40
2018-05-09T15:59:10.138Z,53.60
2018-05-09T16:01:38.005Z,54.10
2018-05-09T16:04:05.872Z,53.40
2018-05-09T16:06:33.738Z,53.50
2018-05-09T16:09:01.615Z,53.20
2018-05-09T16:11:29.477Z,53.00
2018-05-09T16:13:57.340Z,53.20
2018-05-09T16:16:25.204Z,52.90
2018-05-09T16:18:53.174Z,52.70
2018-05-09T16:21:21.042Z,53.10
2018-05-09T16:23:48.907Z,53.80
2018-05-09T16:26:16.774Z,54.10
2018-05-09T16:28:44.642Z,54.10
2018-05-09T16:31:12.507Z,54.40
2018-05-09T16:33:41.194Z,54.80
2018-05-09T16:36:09.145Z,54.80
2018-05-09T16:38:37.677Z,55.10
2018-05-09T16:41:06.431Z,54.80
2018-05-09T16:43:34.299Z,54.70
2018-05-09T16:46:02.167Z,54.80
2018-05-09T16:48:30.033Z,54.90
2018-05-09T16:50:57.898Z,54.90
2018-05-09T16:53:25.692Z,54.90
2018-05-09T16:55:53.527Z,54.90
2018-05-09T16:58:21.395Z,55.00
2018-05-09T17:00:49.364Z,55.00
2018-05-09T17:03:17.230Z,54.20
2018-05-09T17:05:45.025Z,54.10
2018-05-09T17:08:13.680Z,54.60
2018-05-09T17:10:41.477Z,54.60
2018-05-09T17:13:10.221Z,55.10
2018-05-09T17:15:38.816Z,54.80
2018-05-09T17:18:06.686Z,54.80
2018-05-09T17:20:34.549Z,54.70
2018-05-09T17:23:02.415Z,54.70
2018-05-09T17:25:30.281Z,54.00
2018-05-09T17:27:58.078Z,54.60
2018-05-09T17:30:26.018Z,55.20
2018-05-09T17:32:53.880Z,55.00
2018-05-09T17:35:21.760Z,55.20
2018-05-09T17:37:49.614Z,55.60
2018-05-09T17:40:17.414Z,56.20
2018-05-09T17:42:45.350Z,56.70
2018-05-09T17:45:13.216Z,57.10
2018-05-09T17:47:41.081Z,57.70
2018-05-09T17:50:08.880Z,58.00
2018-05-09T17:52:37.742Z,58.90
2018-05-09T17:55:05.807Z,58.80
2018-05-09T17:57:33.560Z,58.80
2018-05-09T18:00:01.316Z,59.00
2018-05-09T18:02:29.088Z,59.20
2018-05-09T18:04:56.863Z,59.40
2018-05-09T18:07:24.630Z,59.40
2018-05-09T18:09:52.444Z,59.60
2018-05-09T18:12:20.981Z,60.10
2018-05-09T18:14:50.136Z,60.10
2018-05-09T18:17:18.466Z,60.20
2018-05-09T18:19:46.249Z,60.50
2018-05-09T18:22:14.811Z,61.80
2018-05-09T18:24:42.698Z,61.60
2018-05-09T18:27:11.257Z,62.00
2018-05-09T18:29:39.693Z,62.00
2018-05-09T18:32:08.358Z,62.50
2018-05-09T18:34:37.862Z,62.90
2018-05-09T18:37:06.666Z,63.10
2018-05-09T18:39:35.388Z,63.10
2018-05-09T18:42:03.874Z,63.20
2018-05-09T18:44:31.946Z,63.60
2018-05-09T18:47:01.588Z,64.10
2018-05-09T18:49:30.122Z,64.60
2018-05-09T18:51:58.002Z,64.60
2018-05-09T18:54:26.483Z,64.70
2018-05-09T18:56:55.067Z,65.40
2018-05-09T18:59:23.547Z,65.50
2018-05-09T19:01:52.534Z,65.60
2018-05-09T19:04:20.409Z,66.00
2018-05-09T19:06:48.308Z,66.50
2018-05-09T19:09:17.809Z,65.60
2018-05-09T19:11:46.373Z,66.40
2018-05-09T19:14:14.151Z,67.80
2018-05-09T19:16:41.955Z,67.60
2018-05-09T19:19:09.930Z,67.80
2018-05-09T19:21:38.751Z,68.40
2018-05-09T19:24:06.719Z,68.30
2018-05-09T19:26:34.492Z,68.70
2018-05-09T19:29:02.456Z,69.10
2018-05-09T19:31:30.321Z,69.20
2018-05-09T19:33:58.289Z,69.30
2018-05-09T19:36:26.261Z,69.50
2018-05-09T19:38:54.035Z,69.50
2018-05-09T19:41:21.818Z,70.00
2018-05-09T19:43:50.544Z,70.40
2018-05-09T19:46:19.268Z,70.70
2018-05-09T19:48:47.554Z,70.70
2018-05-09T19:51:15.503Z,70.80
2018-05-09T19:53:43.262Z,71.90
2018-05-09T19:56:11.063Z,71.10
2018-05-09T19:58:39.000Z,71.50
2018-05-09T20:01:06.762Z,71.80
2018-05-09T20:03:35.341Z,72.00
2018-05-09T20:06:03.138Z,72.00
2018-05-09T20:08:30.916Z,72.20
2018-05-09T20:10:59.563Z,72.40
2018-05-09T20:13:27.324Z,72.40
2018-05-09T20:15:55.295Z,72.50
2018-05-09T20:18:23.162Z,72.30
2018-05-09T20:20:50.959Z,72.30
2018-05-09T20:23:19.612Z,73.00
2018-05-09T20:25:49.115Z,72.50
2018-05-09T20:28:18.660Z,72.80
2018-05-09T20:30:52.657Z,72.90
2018-05-09T20:33:21.658Z,72.90
2018-05-09T20:35:49.845Z,72.90
2018-05-09T20:38:18.791Z,73.00
2018-05-09T20:40:47.477Z,72.80
2018-05-09T20:43:15.240Z,72.80
2018-05-09T20:45:43.013Z,72.60
2018-05-09T20:48:10.805Z,73.50
2018-05-09T20:50:39.761Z,73.50
2018-05-09T20:53:07.879Z,73.50
2018-05-09T20:55:36.522Z,74.10
2018-05-09T20:58:05.040Z,74.10
2018-05-09T21:00:34.488Z,74.10
2018-05-09T21:03:02.545Z,74.00
2018-05-09T21:05:32.379Z,74.10
2018-05-09T21:08:00.392Z,74.10
2018-05-09T21:10:29.054Z,74.80
2018-05-09T21:12:57.057Z,74.90
2018-05-09T21:15:25.792Z,74.90
2018-05-09T21:17:54.493Z,74.90
2018-05-09T21:20:23.378Z,74.40
2018-05-09T21:22:51.245Z,74.40
2018-05-09T21:25:19.214Z,74.20
2018-05-09T21:27:47.269Z,74.40
2018-05-09T21:30:15.765Z,74.00
2018-05-09T21:32:43.521Z,74.00
2018-05-09T21:35:11.277Z,74.10
2018-05-09T21:37:39.045Z,74.30
2018-05-09T21:40:06.821Z,74.30
2018-05-09T21:42:34.689Z,74.10
2018-05-09T21:45:02.660Z,73.90
2018-05-09T21:47:30.525Z,74.20
2018-05-09T21:49:58.391Z,74.10
2018-05-09T21:52:26.258Z,74.40
2018-05-09T21:54:54.227Z,74.40
2018-05-09T21:57:22.607Z,74.90
2018-05-09T21:59:50.582Z,74.30
2018-05-09T22:02:18.441Z,74.40
2018-05-09T22:04:48.437Z,74.60
2018-05-09T22:07:16.274Z,74.90
2018-05-09T22:09:44.866Z,75.10
2018-05-09T22:12:13.342Z,75.10
2018-05-09T22:14:41.359Z,75.10
2018-05-09T22:17:09.153Z,75.10
2018-05-09T22:19:38.026Z,75.00
2018-05-09T22:22:06.096Z,75.00
2018-05-09T22:24:34.025Z,75.20
2018-05-09T22:27:01.800Z,75.30
2018-05-09T22:29:29.564Z,75.20
2018-05-09T22:31:57.330Z,75.10
2018-05-09T22:34:25.114Z,75.50
2018-05-09T22:36:52.949Z,75.60
2018-05-09T22:39:20.748Z,75.30
2018-05-09T22:41:48.545Z,75.20
2018-05-09T22:44:17.076Z,75.30
2018-05-09T22:46:44.833Z,75.30
2018-05-09T22:49:12.597Z,76.30
2018-05-09T22:51:40.366Z,75.40
2018-05-09T22:54:08.133Z,75.50
2018-05-09T22:56:35.888Z,75.60
2018-05-09T22:59:03.652Z,75.70
2018-05-09T23:01:31.444Z,75.80
2018-05-09T23:03:59.215Z,75.80
2018-05-09T23:06:27.173Z,76.00
2018-05-09T23:08:55.036Z,75.90
2018-05-09T23:11:22.834Z,75.90
2018-05-09T23:13:51.384Z,75.90
2018-05-09T23:16:19.251Z,75.90
2018-05-09T23:18:47.343Z,75.80
2018-05-09T23:21:15.293Z,75.90
2018-05-09T23:23:43.101Z,76.10
2018-05-09T23:26:11.638Z,75.70
2018-05-09T23:28:39.456Z,75.70
2018-05-09T23:31:07.224Z,75.50
2018-05-09T23:33:34.985Z,75.30
2018-05-09T23:36:02.830Z,75.50
2018-05-09T23:38:31.372Z,75.60
2018-05-09T23:40:59.247Z,74.80
2018-05-09T23:43:27.114Z,75.20
2018-05-09T23:45:54.916Z,75.10
2018-05-09T23:48:23.666Z,75.50
2018-05-09T23:50:51.634Z,75.40
2018-05-09T23:53:19.502Z,75.80
2018-05-09T23:55:47.493Z,75.80
2018-05-09T23:58:16.157Z,76.00
